KCEC/CEC METAR and TAF weather

Enter ICAO airport designator
Station Type Date Time Source
KCEC METAR 2021/04/14 19:56 UTC NOAA

KCEC 141956Z AUTO 35009G16KT 5SM HZ CLR 13/04 A3000 RMK AO2 SLP160 T01330044


Station Type Date Time Source
KCEC Decoded METAR 2021/04/14 19:56 UTC NOAA

CRESCENT CITY MC NAMARA, CA, United States (KCEC) 41-47N 124-14W
Apr 14, 2021 - 03:56 PM EDT / 2021.04.14 1956 UTC
Wind: from the N (350 degrees) at 10 MPH (9 KT) gusting to 18 MPH (16 KT):0
Visibility: 5 mile(s):0
Sky conditions: clear
Weather: haze
Temperature: 55.9 F (13.3 C)
Dew Point: 39.9 F (4.4 C)
Relative Humidity: 54%
Pressure (altimeter): 30 in. Hg (1015 hPa)
ob: KCEC 141956Z AUTO 35009G16KT 5SM HZ CLR 13/04 A3000 RMK AO2 SLP160 T01330044
cycle: 20

Station Type Date Time Source
KCEC TAF 2021/04/14 18:22 UTC NOAA

TAF KCEC 141720Z 1418/1518 32010KT 6SM HZ SKC
FM142100 33012G22KT 5SM HZ SKC
FM150300 36009KT 6SM HZ BR SKC
FM150900 03005KT 5SM BR SKC

Example: see airport list